createdAt,value
2022-11-29T00:02:09.783Z,49.33
2022-11-29T00:04:44.920Z,44.92
2022-11-29T00:07:12.397Z,43.58
2022-11-29T00:09:45.645Z,46.80
2022-11-29T00:12:12.536Z,46.30
2022-11-29T00:14:47.016Z,44.83
2022-11-29T00:17:14.270Z,47.97
2022-11-29T00:19:47.693Z,48.47
2022-11-29T00:22:20.707Z,45.55
2022-11-29T00:24:54.757Z,50.13
2022-11-29T00:27:21.819Z,47.80
2022-11-29T00:29:56.243Z,50.60
2022-11-29T00:32:29.966Z,49.40
2022-11-29T00:35:13.539Z,45.78
2022-11-29T00:37:46.710Z,45.38
2022-11-29T00:40:20.668Z,45.70
2022-11-29T00:42:47.806Z,49.30
2022-11-29T00:45:21.689Z,44.20
2022-11-29T00:47:48.717Z,44.22
2022-11-29T00:50:15.753Z,46.75
2022-11-29T00:52:48.726Z,43.88
2022-11-29T00:55:15.808Z,46.88
2022-11-29T00:57:49.765Z,53.90
2022-11-29T01:00:17.657Z,49.25
2022-11-29T01:02:57.796Z,50.15
2022-11-29T01:05:25.030Z,48.92
2022-11-29T01:07:52.087Z,49.15
2022-11-29T01:10:25.675Z,56.90
2022-11-29T01:12:59.760Z,56.50
2022-11-29T01:15:26.847Z,57.88
2022-11-29T01:17:53.848Z,53.53
2022-11-29T01:20:27.703Z,59.28
2022-11-29T01:23:01.720Z,54.53
2022-11-29T01:25:28.708Z,52.58
2022-11-29T01:28:01.715Z,46.17
2022-11-29T01:30:28.690Z,48.58
2022-11-29T01:33:01.753Z,43.22
2022-11-29T01:35:28.636Z,42.38
2022-11-29T01:37:55.516Z,41.28
2022-11-29T01:40:33.462Z,47.60
2022-11-29T01:43:00.475Z,46.20
2022-11-29T01:45:33.684Z,45.42
2022-11-29T01:48:00.758Z,49.95
2022-11-29T01:50:34.703Z,46.13
2022-11-29T01:53:01.722Z,44.15
2022-11-29T01:55:35.793Z,44.83
2022-11-29T01:58:03.598Z,42.30
2022-11-29T02:00:36.823Z,45.80
2022-11-29T02:03:15.542Z,52.80
2022-11-29T02:05:51.751Z,47.90
2022-11-29T02:08:38.087Z,48.10
2022-11-29T02:11:41.710Z,43.38
2022-11-29T02:14:26.598Z,44.65
2022-11-29T02:17:08.724Z,46.75
2022-11-29T02:19:50.715Z,46.75
2022-11-29T02:23:38.729Z,46.70
2022-11-29T02:26:50.072Z,44.17
2022-11-29T02:33:11.781Z,43.20
2022-11-29T02:36:09.940Z,41.10
2022-11-29T02:39:19.758Z,43.95
2022-11-29T02:42:18.653Z,39.42
2022-11-29T02:45:43.864Z,42.67
2022-11-29T02:48:37.013Z,40.92
2022-11-29T02:51:50.751Z,44.78
2022-11-29T02:54:56.505Z,46.05
2022-11-29T02:57:46.749Z,46.03
2022-11-29T03:00:16.095Z,49.88
2022-11-29T03:02:54.812Z,45.97
2022-11-29T03:06:24.780Z,45.03
2022-11-29T03:09:10.201Z,43.58
2022-11-29T03:12:12.792Z,44.72
2022-11-29T03:15:03.738Z,48.85
2022-11-29T03:17:40.559Z,46.22
2022-11-29T03:20:29.760Z,47.25
2022-11-29T03:23:10.157Z,50.15
2022-11-29T03:26:02.763Z,56.00
2022-11-29T03:28:37.499Z,50.78
2022-11-29T03:31:36.858Z,46.40
2022-11-29T03:34:30.005Z,41.38
2022-11-29T03:37:17.719Z,48.92
2022-11-29T03:39:44.577Z,51.10
2022-11-29T03:42:28.765Z,54.53
2022-11-29T03:45:23.067Z,53.42
2022-11-29T03:48:21.752Z,52.67
2022-11-29T03:51:19.793Z,51.55
2022-11-29T03:54:08.807Z,47.17
2022-11-29T03:56:38.453Z,47.50
2022-11-29T03:59:51.783Z,44.85
2022-11-29T04:02:40.827Z,47.40
2022-11-29T04:05:48.728Z,46.55
2022-11-29T04:09:00.800Z,45.85
2022-11-29T04:12:22.561Z,46.50
2022-11-29T04:15:15.333Z,48.50
2022-11-29T04:18:03.760Z,48.47
2022-11-29T04:20:58.784Z,45.55
2022-11-29T04:23:45.914Z,44.60
2022-11-29T04:26:41.780Z,46.85
2022-11-29T04:30:01.874Z,46.90
2022-11-29T04:32:50.765Z,42.65
2022-11-29T04:35:38.000Z,47.08
2022-11-29T04:38:32.878Z,43.60
2022-11-29T04:41:09.302Z,42.85
2022-11-29T04:43:42.803Z,45.13
2022-11-29T04:46:40.625Z,42.85
2022-11-29T04:49:30.807Z,44.42
2022-11-29T04:52:31.836Z,42.65
2022-11-29T04:55:43.805Z,42.42
2022-11-29T04:58:51.057Z,40.55
2022-11-29T05:01:35.866Z,42.05
2022-11-29T05:04:13.520Z,44.00
2022-11-29T05:07:18.811Z,39.95
2022-11-29T05:10:29.745Z,39.45
2022-11-29T05:13:40.796Z,40.00
2022-11-29T05:16:29.447Z,45.03
2022-11-29T05:19:35.757Z,43.40
2022-11-29T05:22:40.340Z,47.83
2022-11-29T05:25:47.794Z,62.28
2022-11-29T05:29:08.850Z,85.15
2022-11-29T05:31:56.833Z,70.95
2022-11-29T05:35:03.804Z,69.20
2022-11-29T05:38:03.799Z,60.85
2022-11-29T05:40:45.387Z,54.42
2022-11-29T05:43:31.760Z,54.88
2022-11-29T05:46:08.190Z,57.55
2022-11-29T05:49:07.872Z,64.82
2022-11-29T05:51:50.364Z,86.05
2022-11-29T05:54:50.813Z,86.95
2022-11-29T05:57:20.919Z,79.80
2022-11-29T05:59:48.268Z,75.05
2022-11-29T06:02:35.758Z,67.82
2022-11-29T06:05:31.868Z,60.03
2022-11-29T06:08:35.969Z,50.92
2022-11-29T06:11:30.846Z,46.72
2022-11-29T06:14:03.380Z,47.83
2022-11-29T06:17:02.943Z,48.20
2022-11-29T06:20:06.902Z,46.22
2022-11-29T06:23:05.273Z,42.70
2022-11-29T06:26:23.848Z,48.63
2022-11-29T06:29:18.007Z,45.80
2022-11-29T06:32:29.952Z,44.20
2022-11-29T06:35:38.887Z,44.67
2022-11-29T06:38:29.881Z,45.55
2022-11-29T06:41:01.847Z,45.38
2022-11-29T06:43:36.832Z,45.92
2022-11-29T06:46:10.362Z,47.75
2022-11-29T06:48:59.149Z,54.97
2022-11-29T06:51:45.775Z,70.50
2022-11-29T06:55:07.970Z,82.50
2022-11-29T06:57:48.159Z,75.38
2022-11-29T07:00:33.941Z,67.18
2022-11-29T07:03:35.684Z,56.53
2022-11-29T07:06:18.897Z,48.53
2022-11-29T07:08:45.941Z,44.05
2022-11-29T07:11:19.847Z,44.90
2022-11-29T07:13:47.191Z,60.60
2022-11-29T07:16:57.268Z,83.57
2022-11-29T07:19:37.318Z,96.72
2022-11-29T07:22:28.958Z,100.07
2022-11-29T07:25:37.285Z,93.90
2022-11-29T07:28:43.025Z,81.13
2022-11-29T07:31:40.176Z,64.55
2022-11-29T07:34:33.880Z,68.00
2022-11-29T07:37:31.693Z,61.97
2022-11-29T07:40:34.444Z,61.08
2022-11-29T07:43:38.855Z,67.25
2022-11-29T07:46:11.852Z,62.53
2022-11-29T07:48:38.735Z,62.35
2022-11-29T07:51:11.873Z,50.30
2022-11-29T07:53:43.233Z,38.88
2022-11-29T07:56:16.908Z,37.63
2022-11-29T07:58:43.887Z,40.17
2022-11-29T08:01:10.929Z,39.50
2022-11-29T08:03:44.853Z,37.00
2022-11-29T08:06:11.765Z,37.53
2022-11-29T08:08:44.874Z,40.08
2022-11-29T08:11:18.841Z,40.30
2022-11-29T08:13:45.706Z,44.65
2022-11-29T08:16:23.922Z,39.83
2022-11-29T08:18:50.826Z,43.55
2022-11-29T08:21:17.751Z,43.40
2022-11-29T08:23:52.893Z,48.50
2022-11-29T08:26:20.380Z,46.35
2022-11-29T08:28:57.864Z,41.97
2022-11-29T08:31:30.880Z,42.40
2022-11-29T08:33:57.769Z,40.47
2022-11-29T08:36:30.887Z,45.55
2022-11-29T08:39:09.322Z,44.95
2022-11-29T08:41:36.585Z,47.35
2022-11-29T08:44:11.870Z,54.20
2022-11-29T08:46:38.755Z,47.42
2022-11-29T08:49:05.592Z,48.78
2022-11-29T08:51:38.909Z,48.47
2022-11-29T08:54:05.803Z,52.42
2022-11-29T08:59:31.898Z,50.33
2022-11-29T09:01:58.843Z,49.53
2022-11-29T09:04:31.856Z,58.08
2022-11-29T09:07:04.904Z,56.42
2022-11-29T09:09:31.777Z,51.13
2022-11-29T09:12:05.218Z,52.67
2022-11-29T09:14:38.928Z,51.67
2022-11-29T09:17:05.817Z,47.63
2022-11-29T09:19:38.887Z,50.03
2022-11-29T09:22:05.845Z,51.40
2022-11-29T09:24:39.948Z,49.20
2022-11-29T09:27:12.899Z,45.03
2022-11-29T09:29:39.919Z,44.83
2022-11-29T09:32:06.905Z,45.88
2022-11-29T09:34:39.857Z,53.00
2022-11-29T09:37:06.752Z,57.05
2022-11-29T09:39:39.900Z,53.38
2022-11-29T09:42:22.885Z,49.53
2022-11-29T09:45:11.871Z,53.88
2022-11-29T09:48:26.928Z,60.58
2022-11-29T09:51:29.286Z,51.03
2022-11-29T09:54:34.946Z,49.35
2022-11-29T09:57:06.063Z,45.10
2022-11-29T09:59:49.026Z,48.80
2022-11-29T10:02:40.037Z,48.33
2022-11-29T10:05:16.972Z,41.90
2022-11-29T10:07:59.598Z,47.83
2022-11-29T10:10:53.891Z,48.08
2022-11-29T10:13:32.374Z,47.42
2022-11-29T10:16:33.020Z,44.67
2022-11-29T10:19:09.933Z,47.95
2022-11-29T10:21:44.930Z,46.25
2022-11-29T10:24:15.174Z,44.03
2022-11-29T10:26:48.990Z,42.83
2022-11-29T10:29:16.109Z,46.35
2022-11-29T10:31:45.206Z,43.30
2022-11-29T10:34:24.911Z,47.58
2022-11-29T10:36:58.418Z,48.47
2022-11-29T10:39:42.924Z,52.45
2022-11-29T10:42:18.792Z,95.57
2022-11-29T10:44:51.943Z,72.63
2022-11-29T10:47:18.842Z,53.42
2022-11-29T10:49:45.707Z,47.47
2022-11-29T10:52:27.933Z,48.00
2022-11-29T10:54:57.624Z,46.78
2022-11-29T10:57:31.969Z,51.67
2022-11-29T11:00:06.495Z,47.40
2022-11-29T11:02:39.960Z,48.15
2022-11-29T11:05:19.942Z,53.30
2022-11-29T11:07:47.194Z,46.58
2022-11-29T11:10:34.913Z,48.97
2022-11-29T11:13:17.750Z,51.08
2022-11-29T11:15:50.907Z,50.88
2022-11-29T11:18:31.313Z,52.75
2022-11-29T11:20:59.865Z,54.58
2022-11-29T11:23:42.352Z,52.70
2022-11-29T11:26:11.841Z,58.05
2022-11-29T11:28:59.932Z,50.50
2022-11-29T11:31:37.329Z,54.78
2022-11-29T11:34:36.946Z,58.20
2022-11-29T11:37:16.175Z,55.75
2022-11-29T11:39:50.028Z,57.15
2022-11-29T11:42:35.666Z,51.55
2022-11-29T11:45:17.957Z,52.40
2022-11-29T11:48:11.647Z,59.25
2022-11-29T11:50:55.977Z,56.97
2022-11-29T11:53:34.282Z,52.55
2022-11-29T11:56:11.999Z,58.72
2022-11-29T11:58:54.485Z,63.38
2022-11-29T12:01:44.934Z,63.78
2022-11-29T12:04:33.058Z,56.45
2022-11-29T12:07:59.848Z,51.42
2022-11-29T12:10:22.604Z,53.22
2022-11-29T12:12:56.143Z,55.92
2022-11-29T12:15:35.606Z,61.70
2022-11-29T12:18:19.006Z,55.80
2022-11-29T12:21:14.983Z,64.15
2022-11-29T12:24:03.031Z,57.25
2022-11-29T12:26:57.038Z,54.60
2022-11-29T12:29:30.963Z,55.58
2022-11-29T12:32:49.480Z,57.67
2022-11-29T12:35:52.982Z,56.47
2022-11-29T12:38:44.424Z,56.33
2022-11-29T12:42:01.001Z,54.80
2022-11-29T12:45:07.371Z,56.33
2022-11-29T12:47:51.853Z,59.15
2022-11-29T12:50:28.028Z,53.20
2022-11-29T12:53:27.289Z,63.17
2022-11-29T12:56:26.031Z,59.22
2022-11-29T12:59:18.019Z,60.65
2022-11-29T13:02:16.973Z,60.00
2022-11-29T13:05:18.053Z,64.45
2022-11-29T13:08:21.847Z,59.35
2022-11-29T13:11:07.028Z,61.05
2022-11-29T13:13:39.785Z,59.58
2022-11-29T13:16:39.070Z,56.40
2022-11-29T13:20:01.325Z,55.78
2022-11-29T13:22:49.010Z,59.03
2022-11-29T13:25:32.469Z,58.20
2022-11-29T13:28:40.063Z,51.85
2022-11-29T13:31:18.803Z,58.28
2022-11-29T13:34:10.116Z,54.05
2022-11-29T13:36:54.626Z,53.22
2022-11-29T13:39:56.053Z,52.13
2022-11-29T13:42:44.502Z,59.03
2022-11-29T13:46:04.169Z,55.35
2022-11-29T13:48:46.601Z,55.53
2022-11-29T13:51:41.066Z,51.90
2022-11-29T13:54:39.101Z,50.85
2022-11-29T13:57:08.081Z,51.47
2022-11-29T13:59:47.571Z,52.97
2022-11-29T14:02:30.629Z,50.30
2022-11-29T14:05:04.117Z,50.80
2022-11-29T14:07:37.125Z,53.28
2022-11-29T14:10:06.897Z,51.85
2022-11-29T14:12:57.121Z,50.95
2022-11-29T14:15:29.340Z,50.53
2022-11-29T14:18:13.118Z,52.00
2022-11-29T14:20:40.028Z,50.10
2022-11-29T14:23:13.088Z,47.00
2022-11-29T14:25:55.181Z,49.97
2022-11-29T14:28:29.100Z,49.85
2022-11-29T14:31:10.146Z,49.17
2022-11-29T14:34:09.104Z,50.05
2022-11-29T14:36:50.200Z,47.88
2022-11-29T14:39:56.061Z,49.40
2022-11-29T14:42:31.078Z,54.58
2022-11-29T14:45:06.086Z,54.50
2022-11-29T14:47:37.492Z,50.88
2022-11-29T14:50:13.031Z,51.05
2022-11-29T14:52:40.791Z,45.42
2022-11-29T14:55:23.086Z,50.05
2022-11-29T14:58:23.089Z,46.40
2022-11-29T15:00:56.181Z,44.80
2022-11-29T15:03:37.623Z,44.15
2022-11-29T15:06:23.024Z,44.45
2022-11-29T15:09:00.875Z,44.67
2022-11-29T15:11:51.067Z,45.38
2022-11-29T15:14:53.172Z,45.08
2022-11-29T15:17:42.861Z,45.78
2022-11-29T15:20:34.720Z,45.88
2022-11-29T15:23:15.240Z,42.88
2022-11-29T15:26:01.890Z,43.28
2022-11-29T15:28:36.280Z,43.88
2022-11-29T15:31:11.694Z,39.65
2022-11-29T15:33:50.269Z,42.55
2022-11-29T15:36:30.535Z,44.78
2022-11-29T15:39:07.228Z,42.83
2022-11-29T15:41:44.154Z,48.17
2022-11-29T15:44:31.343Z,45.85
2022-11-29T15:47:38.221Z,40.95
2022-11-29T15:50:09.289Z,43.72
2022-11-29T15:52:43.316Z,38.95
2022-11-29T15:55:18.213Z,41.85
2022-11-29T15:58:05.406Z,42.05
2022-11-29T16:00:35.733Z,44.33
2022-11-29T16:03:10.310Z,43.40
2022-11-29T16:05:37.916Z,40.33
2022-11-29T16:08:21.190Z,42.25
2022-11-29T16:10:50.648Z,38.33
2022-11-29T16:13:45.143Z,41.45
2022-11-29T16:16:22.281Z,39.83
2022-11-29T16:18:50.264Z,41.83
2022-11-29T16:21:38.068Z,44.28
2022-11-29T16:24:14.095Z,40.92
2022-11-29T16:26:50.085Z,44.55
2022-11-29T16:29:41.267Z,46.78
2022-11-29T16:32:42.193Z,45.50
2022-11-29T16:35:24.723Z,44.08
2022-11-29T16:37:59.180Z,42.15
2022-11-29T16:40:31.653Z,42.17
2022-11-29T16:43:11.368Z,39.65
2022-11-29T16:45:46.265Z,46.83
2022-11-29T16:48:22.913Z,45.03
2022-11-29T16:51:22.655Z,48.15
2022-11-29T16:53:56.210Z,48.15
2022-11-29T16:56:31.238Z,45.78
2022-11-29T16:59:20.879Z,46.80
2022-11-29T17:02:29.235Z,49.15
2022-11-29T17:04:53.203Z,48.70
2022-11-29T17:07:35.273Z,42.40
2022-11-29T17:10:10.441Z,43.55
2022-11-29T17:12:37.504Z,47.95
2022-11-29T17:15:11.280Z,48.70
2022-11-29T17:17:38.966Z,53.20
2022-11-29T17:20:08.041Z,55.70
2022-11-29T17:22:42.176Z,64.35
2022-11-29T17:25:16.345Z,69.00
2022-11-29T17:27:50.238Z,62.47
2022-11-29T17:30:24.304Z,63.60
2022-11-29T17:32:58.286Z,57.88
2022-11-29T17:35:29.985Z,55.63
2022-11-29T17:38:05.753Z,58.53
2022-11-29T17:40:39.940Z,52.55
2022-11-29T17:43:17.495Z,48.97
2022-11-29T17:45:44.632Z,49.83
2022-11-29T17:48:18.268Z,52.45
2022-11-29T17:50:52.253Z,51.45
2022-11-29T17:53:20.756Z,48.50
2022-11-29T17:55:54.309Z,50.20
2022-11-29T17:58:25.551Z,49.72
2022-11-29T18:00:59.299Z,51.58
2022-11-29T18:03:26.506Z,46.15
2022-11-29T18:05:53.510Z,44.97
2022-11-29T18:08:27.280Z,44.35
2022-11-29T18:11:21.205Z,44.17
2022-11-29T18:13:55.317Z,44.22
2022-11-29T18:16:28.367Z,45.33
2022-11-29T18:19:03.178Z,42.13
2022-11-29T18:21:30.636Z,44.88
2022-11-29T18:24:06.144Z,43.72
2022-11-29T18:26:34.010Z,42.10
2022-11-29T18:29:07.330Z,42.85
2022-11-29T18:31:36.781Z,40.38
2022-11-29T18:34:12.215Z,40.97
2022-11-29T18:36:41.879Z,46.47
2022-11-29T18:39:18.276Z,45.58
2022-11-29T18:41:54.439Z,42.97
2022-11-29T18:44:21.826Z,39.55
2022-11-29T18:46:55.355Z,40.80
2022-11-29T18:49:22.590Z,40.63
2022-11-29T18:51:56.221Z,41.38
2022-11-29T18:54:23.209Z,38.15
2022-11-29T18:56:57.260Z,38.90
2022-11-29T18:59:24.218Z,43.60
2022-11-29T19:01:51.254Z,39.22
2022-11-29T19:04:26.276Z,44.03
2022-11-29T19:07:00.186Z,40.72
2022-11-29T19:09:27.135Z,40.10
2022-11-29T19:12:00.335Z,43.10
2022-11-29T19:14:27.342Z,38.25
2022-11-29T19:16:54.287Z,50.53
2022-11-29T19:19:28.278Z,50.70
2022-11-29T19:21:55.277Z,50.95
2022-11-29T19:24:29.326Z,51.33
2022-11-29T19:26:56.343Z,48.88
2022-11-29T19:29:32.064Z,43.40
2022-11-29T19:32:02.226Z,42.33
2022-11-29T19:34:36.321Z,43.15
2022-11-29T19:37:03.523Z,40.70
2022-11-29T19:39:30.689Z,38.85
2022-11-29T19:42:04.296Z,37.38
2022-11-29T19:45:08.676Z,36.38
2022-11-29T19:47:25.406Z,34.63
2022-11-29T19:50:02.332Z,31.13
2022-11-29T19:52:36.283Z,34.88
2022-11-29T19:55:03.443Z,32.22
2022-11-29T19:57:30.650Z,31.08
2022-11-29T20:00:04.244Z,27.85
2022-11-29T20:02:31.989Z,31.75
2022-11-29T20:05:05.390Z,32.58
2022-11-29T20:07:32.547Z,34.88
2022-11-29T20:10:06.289Z,31.25
2022-11-29T20:12:33.716Z,31.27
2022-11-29T20:15:07.313Z,32.53
2022-11-29T20:17:34.347Z,25.70
2022-11-29T20:20:08.292Z,21.40
2022-11-29T20:22:42.274Z,21.55
2022-11-29T20:25:09.491Z,19.58
2022-11-29T20:27:43.324Z,21.40
2022-11-29T20:30:11.371Z,18.30
2022-11-29T20:32:45.326Z,16.98
2022-11-29T20:35:13.120Z,16.05
2022-11-29T20:37:46.283Z,15.23
2022-11-29T20:40:28.305Z,14.13
2022-11-29T20:44:15.006Z,14.35
2022-11-29T20:46:48.344Z,16.55
2022-11-29T20:49:15.924Z,17.77
2022-11-29T20:52:06.315Z,17.25
2022-11-29T20:54:40.269Z,17.40
2022-11-29T20:57:08.448Z,17.52
2022-11-29T20:59:35.471Z,18.42
2022-11-29T21:02:09.266Z,18.17
2022-11-29T21:04:43.374Z,19.83
2022-11-29T21:07:10.545Z,18.10
2022-11-29T21:09:37.512Z,21.13
2022-11-29T21:12:11.332Z,21.05
2022-11-29T21:14:38.876Z,23.27
2022-11-29T21:17:13.234Z,21.80
2022-11-29T21:19:40.570Z,20.42
2022-11-29T21:23:19.334Z,21.50
2022-11-29T21:25:58.499Z,21.13
2022-11-29T21:28:42.795Z,23.08
2022-11-29T21:31:11.789Z,24.35
2022-11-29T21:33:46.396Z,28.40
2022-11-29T21:36:13.535Z,29.65
2022-11-29T21:38:52.341Z,30.60
2022-11-29T21:41:28.316Z,33.13
2022-11-29T21:44:06.399Z,36.55
2022-11-29T21:46:41.413Z,38.88
2022-11-29T21:49:08.666Z,44.83
2022-11-29T21:51:42.306Z,44.92
2022-11-29T21:54:09.688Z,45.00
2022-11-29T21:56:43.332Z,46.58
2022-11-29T21:59:10.639Z,47.50
2022-11-29T22:01:44.465Z,43.45
2022-11-29T22:04:18.336Z,43.28
2022-11-29T22:06:45.442Z,38.38
2022-11-29T22:09:19.352Z,41.97
2022-11-29T22:11:46.361Z,41.10
2022-11-29T22:14:22.338Z,43.80
2022-11-29T22:17:00.044Z,37.08
2022-11-29T22:19:41.309Z,36.22
2022-11-29T22:22:08.344Z,47.28
2022-11-29T22:24:36.304Z,37.20
2022-11-29T22:27:10.399Z,37.42
2022-11-29T22:29:44.306Z,41.40
2022-11-29T22:32:18.397Z,37.75
2022-11-29T22:34:45.736Z,38.78
2022-11-29T22:37:19.403Z,37.78
2022-11-29T22:39:46.511Z,37.28
2022-11-29T22:42:13.601Z,38.83
2022-11-29T22:44:47.669Z,38.38
2022-11-29T22:47:14.759Z,42.53
2022-11-29T22:49:48.286Z,41.60
2022-11-29T22:52:15.248Z,39.08
2022-11-29T22:54:48.543Z,40.17
2022-11-29T22:57:22.314Z,40.22
2022-11-29T22:59:49.385Z,39.38
2022-11-29T23:02:23.431Z,39.58
2022-11-29T23:04:57.292Z,42.80
2022-11-29T23:07:30.339Z,40.97
2022-11-29T23:10:04.528Z,44.88
2022-11-29T23:12:31.828Z,41.60
2022-11-29T23:15:05.369Z,40.88
2022-11-29T23:17:32.447Z,42.20
2022-11-29T23:20:06.364Z,41.75
2022-11-29T23:22:33.333Z,42.78
2022-11-29T23:25:07.355Z,42.60
2022-11-29T23:27:34.436Z,39.13
2022-11-29T23:30:10.201Z,38.83
2022-11-29T23:32:37.384Z,39.50
2022-11-29T23:35:04.662Z,42.33
2022-11-29T23:37:41.712Z,43.80
2022-11-29T23:40:09.939Z,41.75
2022-11-29T23:42:52.001Z,40.55
2022-11-29T23:45:32.498Z,46.03
2022-11-29T23:48:06.418Z,39.95
2022-11-29T23:50:33.678Z,38.00
2022-11-29T23:53:13.034Z,39.78
2022-11-29T23:55:40.556Z,39.80
2022-11-29T23:58:14.452Z,40.40
